Portada
METAR-TAF:

METAR-TAF

Aeroports :

Aeroport Internacional de Malabo

Malabo, Guinea Equatorial

latitud: 03-45-18N, longitud: 08-42-31E, altitud: 23 m

METAR: manca

Hora: 19:31 (18:31 UTC)

Pronòstic

L'informe es va fer fa 1 hora i 31 minuts, a les 17:00 UTC
Pronòstic vàlid del 18 a les 18 UTC al 19 a les 24 UTC
Vent 8 kt del Oest/Sud-Oest
Visibilitat 10 km o més
Núvols disperses a una alçada de 1000 ft
Escasses núvols a una alçada de 2000 ft, Cumulonimbus.
Temporalment
l' 18 a les 22 UTC al 19 a les 06 UTC
Visibilitat: 4000 m
Cel ennuvolat a una alçada de 800 ft
Escasses núvols a una alçada de 2000 ft, Cumulonimbus.
tempesta, pluja
Temporalment
l' 19 a les 10 UTC al 19 a les 17 UTC
Cel ennuvolat a una alçada de 1000 ft
Escasses núvols a una alçada de 2000 ft, Cumulonimbus.

TAF: FGSL 181700Z 1818/1924 24008KT 9999 SCT010 FEW020CB TEMPO 1822/1906 4000 TSRA BKN008 FEW020CB TEMPO 1910/1917 BKN010 FEW020CB

Observacions i pronòstics meteorològics de més de 4000 aeroports (METAR i TAF).

Les estacions disponibles són els punts grocs i vermells al mapa.

Posi el ratolí al punt desitjat per veure el nom de l'estació.

Feu clic per veure les observacions i els pronòstics meteorològics.

Per canviar el mapa: feu clic els botons verds amb una creu de color negre per apropar; al botó verd amb un guió per allunyar la imatge; o en les fletxes verdes per a mapes adjacents.


METAR-TAF: